ADDS METAR Data INFO
IDs: Format: Raw Decoded Include TAF

Data at: 1319 UTC 11 Dec 2017

KDLH 111314Z 21004KT 7SM -SN OVC004 M07/M07 A2968 RMK AO2 P0000 T10671067 $
KDLH 111255Z 18006KT 7SM -SN OVC005 M07/M07 A2967 RMK AO2 FZDZE44SNB20 SLP075 PCPN VRY LGT P0000 I1000 T10671067 $
KDLH 111250Z 18006KT 7SM -SN OVC005 M07/M07 A2967 RMK AO2 FZDZE44SNB20 PCPN VRY LGT P0000 I1000 $
KDLH 111215Z 19005KT 3SM -FZDZ BR OVC005 M07/M07 A2968 RMK AO2 P0000 I1000 T10671072 $
KDLH 111155Z 15008KT 2 1/2SM -FZDZ BR BKN004 OVC014 M07/M07 A2967 RMK AO2 FZDZB40SNE52 PRESFR SLP077 P0001 60006 70006 I1000 I6000 T10671072 11067 21094 58030 $
KDLH 111141Z 18005KT 2 1/2SM -FZDZSN BR OVC004 M07/M07 A2970 RMK AO2 VIS 1 3/4 RWY 27 FZDZB40 P0000 I1000 T10721072 $
KDLH 111131Z 18006KT 2 1/2SM -SN BR OVC004 M07/M07 A2970 RMK AO2 VIS 1 1/4 RWY 27 P0000 T10721072 $
KDLH 111122Z 18006KT 2 1/2SM -SN BR OVC005 M07/M07 A2971 RMK AO2 VIS 1 1/2 RWY 27 P0000 T10721072 $
KDLH 111055Z 17007KT 3SM -SN BR OVC005 M07/M08 A2971 RMK AO2 VIS 1 3/4 RWY 27 SLP090 P0000 T10721078 $
KDLH 111010Z 16005KT 8SM -SN BKN007 BKN014 OVC024 M08/M08 A2973 RMK AO2 CIG 006V010 P0000 T10781083 $
KDLH 111008Z 17005KT 8SM -SN SCT007 BKN015 OVC024 M08/M09 A2973 RMK AO2 P0000 T10781089 $
KDLH 110955Z 17005KT 9SM -SN SCT015 OVC026 M08/M09 A2974 RMK AO2 SLP099 PCPN VRY LGT P0001 T10781089 $
KDLH 110919Z 18005KT 6SM -SN BKN028 OVC055 M08/M09 A2975 RMK AO2 VIS 2 1/2 RWY 27 P0001 T10831094 $
KDLH 110855Z 16005KT 2SM -SN BKN038 OVC070 M08/M09 A2977 RMK AO2 SLP108 P0002 60004 T10831094 58027 $
KDLH 110832Z 16006KT 3SM -SN BKN030 OVC070 M09/M10 A2978 RMK AO2 VIS 1 1/2 RWY 27 P0002 T10891100 $
KDLH 110824Z 15007KT 2 1/2SM -SN OVC024 M09/M10 A2978 RMK AO2 VIS 1 1/4 RWY 27 PRESFR P0002 T10891100 $
KDLH 110814Z 16006KT 1 1/2SM -SN OVC018 M09/M10 A2979 RMK AO2 VIS 3/4 RWY 27 PRESFR P0001 T10891100 $
KDLH 110755Z 16007KT 1SM R09/P6000FT -SN VV014 M09/M10 A2981 RMK AO2 SLP125 P0002 T10891100 $
KDLH 110753Z 16007KT 1SM R09/P6000FT -SN VV014 M09/M10 A2982 RMK AO2 P0002 $
KDLH 110722Z 15009KT 1 3/4SM -SN OVC026 M08/M11 A2983 RMK AO2 P0001 T10831106 $
KDLH 110718Z 15009KT 2SM -SN OVC030 M08/M11 A2984 RMK AO2 VIS 1 1/4 RWY 27 P0001 T10831106 $
KDLH 110655Z 15009KT 7SM -SN OVC042 M08/M11 A2985 RMK AO2 VIS 2 1/2 RWY 27 SNB21 SLP137 P0000 T10831106 $
KDLH 110555Z 18004KT 10SM SCT021 BKN075 OVC120 M09/M11 A2990 RMK AO2 SLP154 T10941111 11094 21128 410611128 56013 $
KDLH 110455Z 16003KT 10SM BKN120 M11/M12 A2990 RMK AO2 SLP155 T11061122 $
KDLH 110355Z 00000KT 10SM BKN120 M12/M13 A2992 RMK AO2 SLP165 T11221133 $
KDLH 110255Z 00000KT 10SM BKN120 M12/M13 A2994 RMK AO2 SLP170 T11221133 56018 $
KDLH 110155Z 12003KT 10SM BKN120 M12/M13 A2995 RMK AO2 SLP175 T11171128 $
KDLH 110055Z 32007KT 10SM BKN120 M11/M13 A2997 RMK AO2 SLP178 T11061128 $
KDLH 102355Z 32004KT 10SM FEW020 M10/M12 A2999 RMK AO2 SLP186 T11001122 11061 21100 50008 $
KDLH 102255Z 33003KT 10SM FEW023 FEW065 M09/M12 A3000 RMK AO2 SLP187 T10891122 $
KDLH 102155Z 33005KT 10SM FEW023 FEW065 M08/M12 A2999 RMK AO2 SLP184 T10831122 $
KDLH 102055Z 33007KT 10SM SCT021 SCT065 M08/M12 A2997 RMK AO2 SLP177 T10781117 53009 $
KDLH 102045Z 34008KT 10SM SCT021 BKN065 M07/M12 A2997 RMK AO2 T10721117 $
KDLH 101955Z 31011KT 10SM BKN022 BKN070 M07/M11 A2995 RMK AO2 SLP170 T10671106 $
KDLH 101913Z 31007KT 10SM BKN020 M07/M11 A2994 RMK AO2 T10671111 $
KDLH 101904Z 34009KT 10SM SCT020 M07/M11 A2995 RMK AO2 T10721111 $
KDLH 101855Z 33010KT 10SM BKN020 M07/M11 A2994 RMK AO2 SLP168 T10721111 $
KDLH 101755Z 32009KT 10SM BKN019 M07/M11 A2994 RMK AO2 SNE16 SLP167 P0000 60000 T10721111 11067 21078 50016 $
KDLH 101655Z 34006G15KT 8SM -SN OVC016 M08/M11 A2995 RMK AO2 SNB37 SLP170 P0000 T10781111 $
KDLH 101555Z 33009KT 10SM OVC016 M08/M11 A2992 RMK AO2 SLP161 T10781106 $
KDLH 101516Z 35005KT 10SM OVC016 M08/M11 A2990 RMK AO2 T10781106 $
KDLH 101455Z 35007KT 10SM OVC014 M08/M10 A2989 RMK AO2 SLP151 T10781100 53024 $
KDLH 101355Z 34010KT 10SM OVC013 M08/M10 A2986 RMK AO2 SLP141 T10781100 $
KDLH 101255Z 35013KT 10SM OVC014 M07/M09 A2984 RMK AO2 SLP133 T10721094 $
KDLH 101210Z 34009KT 10SM OVC014 M07/M09 A2982 RMK AO2 T10671089 $
KDLH 101155Z 34009KT 10SM OVC015 M07/M09 A2982 RMK AO2 SLP125 70001 T10671089 11067 21083 53018 $
KDLH 101055Z 33009KT 10SM OVC019 M07/M09 A2980 RMK AO2 SLP120 T10671089
KDLH 101040Z 34007KT 10SM SCT014 OVC021 M07/M09 A2979 RMK AO2 T10671094
KDLH 101022Z 33005KT 10SM OVC014 M07/M09 A2979 RMK AO2 T10671089
KDLH 100955Z 33004KT 10SM OVC015 M07/M09 A2977 RMK AO2 SLP111 T10671089
KDLH 100855Z 30004KT 10SM SCT018 OVC026 M07/M09 A2976 RMK AO2 SLP106 T10671094 51005
KDLH 100755Z 29005KT 10SM OVC017 M07/M09 A2975 RMK AO2 SLP105 T10721094
KDLH 100655Z 26006KT 10SM OVC021 M07/M09 A2975 RMK AO2 SLP104 T10721094
KDLH 100555Z 23006KT 10SM OVC018 M08/M10 A2974 RMK AO2 SLP104 60001 T10831100 11083 21094 410831167 56024
KDLH 100455Z 22008KT 10SM OVC020 M08/M11 A2977 RMK AO2 SLP111 T10831106
KDLH 100416Z 22007KT 10SM BKN024 OVC050 M09/M11 A2978 RMK AO2 T10891106
KDLH 100355Z 22008KT 10SM FEW022 OVC050 M09/M11 A2979 RMK AO2 SLP121 T10891106
KDLH 100255Z 22010KT 10SM FEW060 BKN100 BKN120 M09/M11 A2982 RMK AO2 SNE10 SLP131 P0000 60001 T10891111 56029
KDLH 100155Z 21008KT 7SM -SN BKN050 OVC070 M09/M11 A2983 RMK AO2 SLP138 P0001 T10941106
KDLH 100135Z 23008KT 8SM -SN BKN032 BKN070 OVC080 M09/M11 A2985 RMK AO2 P0001 T10941111
KDLH 100127Z 21009KT 2SM -SN BR BKN023 OVC075 M09/M11 A2985 RMK AO2 SFC VIS 4 VIS 1 3/4 RWY 27 P0001 T10941111